sensor_id;sensor_type;location;lat;lon;timestamp;temperature;humidity
5459;DHT22;2752;49.992;8.422;2022-10-16T11:00:41;20.40;35.90
5459;DHT22;2752;49.992;8.422;2022-10-16T11:03:20;20.70;29.40
5459;DHT22;2752;49.992;8.422;2022-10-16T11:05:54;20.60;27.50
5459;DHT22;2752;49.992;8.422;2022-10-16T11:08:27;20.90;25.00
5459;DHT22;2752;49.992;8.422;2022-10-16T11:10:59;20.90;22.00
5459;DHT22;2752;49.992;8.422;2022-10-16T11:13:33;20.90;24.30
5459;DHT22;2752;49.992;8.422;2022-10-16T11:16:13;20.80;26.70
5459;DHT22;2752;49.992;8.422;2022-10-16T11:18:47;20.70;29.70
5459;DHT22;2752;49.992;8.422;2022-10-16T11:21:18;20.60;31.30
5459;DHT22;2752;49.992;8.422;2022-10-16T11:23:51;20.50;33.80
5459;DHT22;2752;49.992;8.422;2022-10-16T11:26:23;20.50;35.30
5459;DHT22;2752;49.992;8.422;2022-10-16T11:28:54;20.40;35.70
5459;DHT22;2752;49.992;8.422;2022-10-16T11:31:27;20.40;34.80
5459;DHT22;2752;49.992;8.422;2022-10-16T11:34:01;20.40;32.30
5459;DHT22;2752;49.992;8.422;2022-10-16T11:36:34;20.30;35.60
5459;DHT22;2752;49.992;8.422;2022-10-16T11:39:10;20.30;37.40
5459;DHT22;2752;49.992;8.422;2022-10-16T11:41:42;20.30;40.90
5459;DHT22;2752;49.992;8.422;2022-10-16T11:44:24;20.50;39.60
5459;DHT22;2752;49.992;8.422;2022-10-16T11:47:01;20.50;35.00
5459;DHT22;2752;49.992;8.422;2022-10-16T11:49:32;20.40;36.40
5459;DHT22;2752;49.992;8.422;2022-10-16T11:52:05;20.40;35.10
5459;DHT22;2752;49.992;8.422;2022-10-16T11:54:39;20.50;36.20
5459;DHT22;2752;49.992;8.422;2022-10-16T11:57:12;20.70;34.10
5459;DHT22;2752;49.992;8.422;2022-10-16T11:59:45;20.80;26.40
5459;DHT22;2752;49.992;8.422;2022-10-16T12:02:30;20.80;29.40
5459;DHT22;2752;49.992;8.422;2022-10-16T12:05:06;21.00;31.90
5459;DHT22;2752;49.992;8.422;2022-10-16T12:07:41;21.40;24.60
5459;DHT22;2752;49.992;8.422;2022-10-16T12:10:21;21.60;22.30
5459;DHT22;2752;49.992;8.422;2022-10-16T12:12:49;21.80;12.60
5459;DHT22;2752;49.992;8.422;2022-10-16T12:15:23;21.70;8.30
5459;DHT22;2752;49.992;8.422;2022-10-16T12:17:52;21.70;9.00
5459;DHT22;2752;49.992;8.422;2022-10-16T12:20:26;21.80;6.40
5459;DHT22;2752;49.992;8.422;2022-10-16T12:22:54;21.90;7.00
5459;DHT22;2752;49.992;8.422;2022-10-16T12:25:25;21.90;3.50
5459;DHT22;2752;49.992;8.422;2022-10-16T12:28:01;21.90;1.00
5459;DHT22;2752;49.992;8.422;2022-10-16T12:30:31;21.90;1.70
5459;DHT22;2752;49.992;8.422;2022-10-16T12:33:01;22.00;1.00
5459;DHT22;2752;49.992;8.422;2022-10-16T12:35:31;22.20;1.00
5459;DHT22;2752;49.992;8.422;2022-10-16T12:38:07;22.20;1.00
5459;DHT22;2752;49.992;8.422;2022-10-16T12:40:36;22.40;1.00
5459;DHT22;2752;49.992;8.422;2022-10-16T12:43:25;22.50;1.00
5459;DHT22;2752;49.992;8.422;2022-10-16T12:46:02;22.70;1.00
5459;DHT22;2752;49.992;8.422;2022-10-16T12:48:30;22.50;1.00
5459;DHT22;2752;49.992;8.422;2022-10-16T12:50:57;22.60;1.00
5459;DHT22;2752;49.992;8.422;2022-10-16T12:53:25;22.70;1.00
5459;DHT22;2752;49.992;8.422;2022-10-16T12:56:03;22.70;1.00
5459;DHT22;2752;49.992;8.422;2022-10-16T12:58:49;22.70;1.00
5459;DHT22;2752;49.992;8.422;2022-10-16T13:01:32;22.60;1.00
5459;DHT22;2752;49.992;8.422;2022-10-16T13:07:00;22.40;1.00
5459;DHT22;2752;49.992;8.422;2022-10-16T13:09:43;22.30;1.00
5459;DHT22;2752;49.992;8.422;2022-10-16T13:12:23;22.30;1.00
5459;DHT22;2752;49.992;8.422;2022-10-16T13:15:09;22.10;1.00
5459;DHT22;2752;49.992;8.422;2022-10-16T13:17:45;21.90;1.00
5459;DHT22;2752;49.992;8.422;2022-10-16T13:20:21;21.90;1.00
5459;DHT22;2752;49.992;8.422;2022-10-16T13:22:58;21.90;1.00
5459;DHT22;2752;49.992;8.422;2022-10-16T13:25:35;21.80;1.00
5459;DHT22;2752;49.992;8.422;2022-10-16T13:28:04;21.90;1.00
5459;DHT22;2752;49.992;8.422;2022-10-16T13:30:34;21.90;1.00
5459;DHT22;2752;49.992;8.422;2022-10-16T13:33:10;21.80;1.00
5459;DHT22;2752;49.992;8.422;2022-10-16T13:35:47;21.80;1.00
5459;DHT22;2752;49.992;8.422;2022-10-16T13:38:16;21.70;1.00
5459;DHT22;2752;49.992;8.422;2022-10-16T13:40:52;21.80;1.00
5459;DHT22;2752;49.992;8.422;2022-10-16T13:43:20;21.80;1.00
5459;DHT22;2752;49.992;8.422;2022-10-16T13:45:59;21.70;1.00
5459;DHT22;2752;49.992;8.422;2022-10-16T13:48:28;21.80;1.00
5459;DHT22;2752;49.992;8.422;2022-10-16T13:51:00;21.70;1.00
5459;DHT22;2752;49.992;8.422;2022-10-16T13:53:27;21.70;1.00
5459;DHT22;2752;49.992;8.422;2022-10-16T13:55:56;21.60;1.00
5459;DHT22;2752;49.992;8.422;2022-10-16T13:58:23;21.50;1.00
5459;DHT22;2752;49.992;8.422;2022-10-16T14:00:57;21.40;1.00
5459;DHT22;2752;49.992;8.422;2022-10-16T14:03:25;21.30;1.00
5459;DHT22;2752;49.992;8.422;2022-10-16T14:05:55;21.20;1.00
5459;DHT22;2752;49.992;8.422;2022-10-16T14:08:24;21.20;1.00
5459;DHT22;2752;49.992;8.422;2022-10-16T14:10:54;21.10;1.00
5459;DHT22;2752;49.992;8.422;2022-10-16T14:13:29;21.20;1.00
5459;DHT22;2752;49.992;8.422;2022-10-16T14:15:57;21.20;1.00
5459;DHT22;2752;49.992;8.422;2022-10-16T14:18:27;21.20;1.00
5459;DHT22;2752;49.992;8.422;2022-10-16T14:21:03;21.20;1.00
5459;DHT22;2752;49.992;8.422;2022-10-16T14:23:32;21.20;1.00
5459;DHT22;2752;49.992;8.422;2022-10-16T14:26:13;21.20;1.00
5459;DHT22;2752;49.992;8.422;2022-10-16T14:28:40;21.20;1.00
5459;DHT22;2752;49.992;8.422;2022-10-16T14:31:25;21.10;1.10
5459;DHT22;2752;49.992;8.422;2022-10-16T14:33:52;21.20;2.20
5459;DHT22;2752;49.992;8.422;2022-10-16T14:36:20;21.20;3.00
5459;DHT22;2752;49.992;8.422;2022-10-16T14:38:54;21.20;2.80
5459;DHT22;2752;49.992;8.422;2022-10-16T14:41:23;21.20;2.50
5459;DHT22;2752;49.992;8.422;2022-10-16T14:43:52;21.20;2.10
5459;DHT22;2752;49.992;8.422;2022-10-16T14:46:21;21.20;1.00
5459;DHT22;2752;49.992;8.422;2022-10-16T14:48:54;21.20;1.00
5459;DHT22;2752;49.992;8.422;2022-10-16T14:51:26;21.20;1.00
5459;DHT22;2752;49.992;8.422;2022-10-16T14:53:53;21.20;1.00
5459;DHT22;2752;49.992;8.422;2022-10-16T14:56:22;21.20;1.00
5459;DHT22;2752;49.992;8.422;2022-10-16T14:58:50;21.20;1.00
5459;DHT22;2752;49.992;8.422;2022-10-16T15:01:18;21.20;1.00
5459;DHT22;2752;49.992;8.422;2022-10-16T15:03:45;21.30;1.00
5459;DHT22;2752;49.992;8.422;2022-10-16T15:06:12;21.30;1.00
5459;DHT22;2752;49.992;8.422;2022-10-16T15:08:41;21.30;1.00
5459;DHT22;2752;49.992;8.422;2022-10-16T15:11:10;21.30;1.00
5459;DHT22;2752;49.992;8.422;2022-10-16T15:13:38;21.30;1.00
5459;DHT22;2752;49.992;8.422;2022-10-16T15:16:09;21.20;1.00
5459;DHT22;2752;49.992;8.422;2022-10-16T15:18:36;21.20;1.00
5459;DHT22;2752;49.992;8.422;2022-10-16T15:21:03;21.10;1.10
5459;DHT22;2752;49.992;8.422;2022-10-16T15:23:30;21.10;2.60
5459;DHT22;2752;49.992;8.422;2022-10-16T15:25:58;21.10;3.50
5459;DHT22;2752;49.992;8.422;2022-10-16T15:28:26;21.00;3.90
5459;DHT22;2752;49.992;8.422;2022-10-16T15:30:54;21.00;4.90
5459;DHT22;2752;49.992;8.422;2022-10-16T15:33:23;20.90;4.60
5459;DHT22;2752;49.992;8.422;2022-10-16T15:35:53;20.90;4.70
5459;DHT22;2752;49.992;8.422;2022-10-16T15:38:22;20.80;4.90
5459;DHT22;2752;49.992;8.422;2022-10-16T15:40:49;20.70;7.10
5459;DHT22;2752;49.992;8.422;2022-10-16T15:43:17;20.60;9.00
5459;DHT22;2752;49.992;8.422;2022-10-16T15:45:44;20.60;11.20
5459;DHT22;2752;49.992;8.422;2022-10-16T15:48:12;20.70;11.50
5459;DHT22;2752;49.992;8.422;2022-10-16T15:50:39;20.50;13.00
5459;DHT22;2752;49.992;8.422;2022-10-16T15:53:08;20.40;15.20
5459;DHT22;2752;49.992;8.422;2022-10-16T15:55:34;20.40;16.70
5459;DHT22;2752;49.992;8.422;2022-10-16T15:58:03;20.30;17.80
5459;DHT22;2752;49.992;8.422;2022-10-16T16:00:32;20.30;19.10
5459;DHT22;2752;49.992;8.422;2022-10-16T16:02:58;20.20;19.40
5459;DHT22;2752;49.992;8.422;2022-10-16T16:05:25;20.20;19.40
5459;DHT22;2752;49.992;8.422;2022-10-16T16:07:52;20.20;20.00
5459;DHT22;2752;49.992;8.422;2022-10-16T16:10:20;20.20;21.60
5459;DHT22;2752;49.992;8.422;2022-10-16T16:12:47;20.10;22.80
5459;DHT22;2752;49.992;8.422;2022-10-16T16:15:18;20.10;23.10
5459;DHT22;2752;49.992;8.422;2022-10-16T16:17:46;20.10;23.50
5459;DHT22;2752;49.992;8.422;2022-10-16T16:20:13;20.00;25.20
5459;DHT22;2752;49.992;8.422;2022-10-16T16:22:40;20.00;26.80
5459;DHT22;2752;49.992;8.422;2022-10-16T16:25:07;19.90;28.70
5459;DHT22;2752;49.992;8.422;2022-10-16T16:27:34;19.80;29.80
5459;DHT22;2752;49.992;8.422;2022-10-16T16:30:05;19.80;31.90
5459;DHT22;2752;49.992;8.422;2022-10-16T16:32:32;19.70;33.70
5459;DHT22;2752;49.992;8.422;2022-10-16T16:35:01;19.60;35.00
5459;DHT22;2752;49.992;8.422;2022-10-16T16:37:28;19.60;36.60
5459;DHT22;2752;49.992;8.422;2022-10-16T16:39:55;19.60;37.50
5459;DHT22;2752;49.992;8.422;2022-10-16T16:42:24;19.50;38.50
5459;DHT22;2752;49.992;8.422;2022-10-16T16:44:50;19.50;39.60
5459;DHT22;2752;49.992;8.422;2022-10-16T16:47:17;19.40;41.70
5459;DHT22;2752;49.992;8.422;2022-10-16T16:49:44;19.40;44.30
5459;DHT22;2752;49.992;8.422;2022-10-16T16:52:13;19.30;45.80
5459;DHT22;2752;49.992;8.422;2022-10-16T16:54:40;19.30;47.50
5459;DHT22;2752;49.992;8.422;2022-10-16T16:57:06;19.30;48.50
5459;DHT22;2752;49.992;8.422;2022-10-16T16:59:33;19.30;49.80
5459;DHT22;2752;49.992;8.422;2022-10-16T17:02:00;19.20;50.50
5459;DHT22;2752;49.992;8.422;2022-10-16T17:04:27;19.20;53.00
5459;DHT22;2752;49.992;8.422;2022-10-16T17:06:54;19.20;54.00
5459;DHT22;2752;49.992;8.422;2022-10-16T17:09:22;19.10;56.20
5459;DHT22;2752;49.992;8.422;2022-10-16T17:11:49;19.00;56.70
5459;DHT22;2752;49.992;8.422;2022-10-16T17:14:16;19.00;58.30
5459;DHT22;2752;49.992;8.422;2022-10-16T17:16:43;19.00;59.20
5459;DHT22;2752;49.992;8.422;2022-10-16T17:19:12;19.00;60.50
5459;DHT22;2752;49.992;8.422;2022-10-16T17:21:40;18.90;60.80
5459;DHT22;2752;49.992;8.422;2022-10-16T17:24:06;18.90;63.00
5459;DHT22;2752;49.992;8.422;2022-10-16T17:26:34;18.90;63.70
5459;DHT22;2752;49.992;8.422;2022-10-16T17:29:03;18.80;64.30
5459;DHT22;2752;49.992;8.422;2022-10-16T17:31:31;18.80;65.90
5459;DHT22;2752;49.992;8.422;2022-10-16T17:33:59;18.70;67.60
5459;DHT22;2752;49.992;8.422;2022-10-16T17:36:27;18.70;68.10
5459;DHT22;2752;49.992;8.422;2022-10-16T17:38:57;18.70;68.60
5459;DHT22;2752;49.992;8.422;2022-10-16T17:41:26;18.50;70.00
5459;DHT22;2752;49.992;8.422;2022-10-16T17:43:54;18.50;71.30
5459;DHT22;2752;49.992;8.422;2022-10-16T17:46:22;18.50;71.00
5459;DHT22;2752;49.992;8.422;2022-10-16T17:48:50;18.40;70.30
5459;DHT22;2752;49.992;8.422;2022-10-16T17:51:20;18.30;72.30
5459;DHT22;2752;49.992;8.422;2022-10-16T17:53:48;18.30;73.30
5459;DHT22;2752;49.992;8.422;2022-10-16T17:56:15;18.20;75.80
5459;DHT22;2752;49.992;8.422;2022-10-16T17:58:42;18.10;76.70
5459;DHT22;2752;49.992;8.422;2022-10-16T18:01:12;18.10;77.10
5459;DHT22;2752;49.992;8.422;2022-10-16T18:03:39;18.00;78.10
5459;DHT22;2752;49.992;8.422;2022-10-16T18:06:06;18.00;79.20
5459;DHT22;2752;49.992;8.422;2022-10-16T18:08:33;17.90;79.70
5459;DHT22;2752;49.992;8.422;2022-10-16T18:11:01;17.90;80.60
5459;DHT22;2752;49.992;8.422;2022-10-16T18:13:28;17.80;80.60
5459;DHT22;2752;49.992;8.422;2022-10-16T18:15:58;17.80;80.60
5459;DHT22;2752;49.992;8.422;2022-10-16T18:18:27;17.70;81.90
5459;DHT22;2752;49.992;8.422;2022-10-16T18:20:57;17.70;82.30
5459;DHT22;2752;49.992;8.422;2022-10-16T18:23:23;17.60;83.20
5459;DHT22;2752;49.992;8.422;2022-10-16T18:25:50;17.60;84.50
5459;DHT22;2752;49.992;8.422;2022-10-16T18:28:17;17.50;84.80
5459;DHT22;2752;49.992;8.422;2022-10-16T18:30:43;17.50;85.60
5459;DHT22;2752;49.992;8.422;2022-10-16T18:33:10;17.40;86.20
5459;DHT22;2752;49.992;8.422;2022-10-16T18:35:38;17.40;86.70
5459;DHT22;2752;49.992;8.422;2022-10-16T18:38:05;17.30;87.50
5459;DHT22;2752;49.992;8.422;2022-10-16T18:40:34;17.30;87.60
5459;DHT22;2752;49.992;8.422;2022-10-16T18:43:01;17.30;88.30
5459;DHT22;2752;49.992;8.422;2022-10-16T18:45:28;17.30;88.50
5459;DHT22;2752;49.992;8.422;2022-10-16T18:47:55;17.20;88.70
5459;DHT22;2752;49.992;8.422;2022-10-16T18:50:21;17.20;89.20
5459;DHT22;2752;49.992;8.422;2022-10-16T18:52:49;17.10;89.80
5459;DHT22;2752;49.992;8.422;2022-10-16T18:55:16;17.10;90.20
5459;DHT22;2752;49.992;8.422;2022-10-16T18:57:43;17.00;90.10
5459;DHT22;2752;49.992;8.422;2022-10-16T19:00:10;17.00;90.90
5459;DHT22;2752;49.992;8.422;2022-10-16T19:02:36;16.90;91.50
5459;DHT22;2752;49.992;8.422;2022-10-16T19:05:04;16.90;91.80
5459;DHT22;2752;49.992;8.422;2022-10-16T19:07:30;16.80;92.10
5459;DHT22;2752;49.992;8.422;2022-10-16T19:09:58;16.80;92.70
5459;DHT22;2752;49.992;8.422;2022-10-16T19:12:25;16.70;92.40
5459;DHT22;2752;49.992;8.422;2022-10-16T19:14:52;16.70;93.20
5459;DHT22;2752;49.992;8.422;2022-10-16T19:17:18;16.70;93.10
5459;DHT22;2752;49.992;8.422;2022-10-16T19:19:45;16.70;93.30
5459;DHT22;2752;49.992;8.422;2022-10-16T19:22:12;16.70;93.90
5459;DHT22;2752;49.992;8.422;2022-10-16T19:24:52;16.70;94.70
5459;DHT22;2752;49.992;8.422;2022-10-16T19:27:20;16.70;96.00
5459;DHT22;2752;49.992;8.422;2022-10-16T19:29:46;16.60;95.90
5459;DHT22;2752;49.992;8.422;2022-10-16T19:32:13;16.60;95.90
5459;DHT22;2752;49.992;8.422;2022-10-16T19:34:40;16.60;95.90
5459;DHT22;2752;49.992;8.422;2022-10-16T19:37:06;16.60;96.00
5459;DHT22;2752;49.992;8.422;2022-10-16T19:39:35;16.50;95.90
5459;DHT22;2752;49.992;8.422;2022-10-16T19:42:02;16.50;96.20
5459;DHT22;2752;49.992;8.422;2022-10-16T19:44:30;16.50;96.50
5459;DHT22;2752;49.992;8.422;2022-10-16T19:46:56;16.40;96.40
5459;DHT22;2752;49.992;8.422;2022-10-16T19:49:23;16.40;96.20
5459;DHT22;2752;49.992;8.422;2022-10-16T19:51:50;16.40;96.50
5459;DHT22;2752;49.992;8.422;2022-10-16T19:54:18;16.30;96.50
5459;DHT22;2752;49.992;8.422;2022-10-16T19:56:45;16.30;96.60
5459;DHT22;2752;49.992;8.422;2022-10-16T19:59:12;16.40;96.70
5459;DHT22;2752;49.992;8.422;2022-10-16T20:01:43;16.30;95.80
5459;DHT22;2752;49.992;8.422;2022-10-16T20:04:10;16.30;95.30
5459;DHT22;2752;49.992;8.422;2022-10-16T20:06:37;16.20;95.70
5459;DHT22;2752;49.992;8.422;2022-10-16T20:09:04;16.30;96.10
5459;DHT22;2752;49.992;8.422;2022-10-16T20:11:32;16.20;95.70
5459;DHT22;2752;49.992;8.422;2022-10-16T20:14:00;16.20;95.70
5459;DHT22;2752;49.992;8.422;2022-10-16T20:16:28;16.20;95.90
5459;DHT22;2752;49.992;8.422;2022-10-16T20:18:57;16.20;96.20
5459;DHT22;2752;49.992;8.422;2022-10-16T20:21:27;16.10;95.80
5459;DHT22;2752;49.992;8.422;2022-10-16T20:23:54;16.10;96.30
5459;DHT22;2752;49.992;8.422;2022-10-16T20:26:23;16.00;96.10
5459;DHT22;2752;49.992;8.422;2022-10-16T20:28:50;16.10;96.70
5459;DHT22;2752;49.992;8.422;2022-10-16T20:31:20;16.00;95.80
5459;DHT22;2752;49.992;8.422;2022-10-16T20:33:48;16.00;95.70
5459;DHT22;2752;49.992;8.422;2022-10-16T20:36:17;15.90;95.90
5459;DHT22;2752;49.992;8.422;2022-10-16T20:38:44;15.90;95.70
5459;DHT22;2752;49.992;8.422;2022-10-16T20:41:11;15.80;96.00
5459;DHT22;2752;49.992;8.422;2022-10-16T20:43:41;15.80;96.30
5459;DHT22;2752;49.992;8.422;2022-10-16T20:46:09;15.80;96.20
5459;DHT22;2752;49.992;8.422;2022-10-16T20:48:38;15.70;96.50
5459;DHT22;2752;49.992;8.422;2022-10-16T20:51:13;15.80;96.60
5459;DHT22;2752;49.992;8.422;2022-10-16T20:53:42;15.70;97.20
5459;DHT22;2752;49.992;8.422;2022-10-16T20:56:10;15.80;97.00
5459;DHT22;2752;49.992;8.422;2022-10-16T20:58:38;15.80;97.00
5459;DHT22;2752;49.992;8.422;2022-10-16T21:01:06;15.70;97.30
5459;DHT22;2752;49.992;8.422;2022-10-16T21:03:33;15.70;97.90
5459;DHT22;2752;49.992;8.422;2022-10-16T21:06:02;15.70;98.40
5459;DHT22;2752;49.992;8.422;2022-10-16T21:08:28;15.70;98.50
5459;DHT22;2752;49.992;8.422;2022-10-16T21:10:56;15.70;99.00
5459;DHT22;2752;49.992;8.422;2022-10-16T21:13:23;15.70;98.70
5459;DHT22;2752;49.992;8.422;2022-10-16T21:15:50;15.60;98.70
5459;DHT22;2752;49.992;8.422;2022-10-16T21:18:16;15.60;98.90
5459;DHT22;2752;49.992;8.422;2022-10-16T21:20:43;15.60;99.10
5459;DHT22;2752;49.992;8.422;2022-10-16T21:23:10;15.70;99.30
5459;DHT22;2752;49.992;8.422;2022-10-16T21:25:37;15.70;99.60
5459;DHT22;2752;49.992;8.422;2022-10-16T21:28:05;15.60;99.40
5459;DHT22;2752;49.992;8.422;2022-10-16T21:30:32;15.70;99.60
5459;DHT22;2752;49.992;8.422;2022-10-16T21:32:58;15.60;98.90
5459;DHT22;2752;49.992;8.422;2022-10-16T21:35:25;15.60;98.90
5459;DHT22;2752;49.992;8.422;2022-10-16T21:37:52;15.60;99.70
5459;DHT22;2752;49.992;8.422;2022-10-16T21:40:18;15.60;98.80
5459;DHT22;2752;49.992;8.422;2022-10-16T21:42:45;15.50;99.00
5459;DHT22;2752;49.992;8.422;2022-10-16T21:45:13;15.50;99.00
5459;DHT22;2752;49.992;8.422;2022-10-16T21:47:40;15.50;99.30
5459;DHT22;2752;49.992;8.422;2022-10-16T21:50:07;15.40;99.00
5459;DHT22;2752;49.992;8.422;2022-10-16T21:52:34;15.40;99.10
5459;DHT22;2752;49.992;8.422;2022-10-16T21:55:00;15.30;99.30
5459;DHT22;2752;49.992;8.422;2022-10-16T21:57:27;15.30;99.60
5459;DHT22;2752;49.992;8.422;2022-10-16T21:59:54;15.40;99.70
5459;DHT22;2752;49.992;8.422;2022-10-16T22:02:22;15.30;99.00
5459;DHT22;2752;49.992;8.422;2022-10-16T22:04:49;15.20;98.90
5459;DHT22;2752;49.992;8.422;2022-10-16T22:07:15;15.20;99.20
5459;DHT22;2752;49.992;8.422;2022-10-16T22:09:42;15.20;99.30
5459;DHT22;2752;49.992;8.422;2022-10-16T22:12:09;15.20;99.60
5459;DHT22;2752;49.992;8.422;2022-10-16T22:14:35;15.20;99.60
5459;DHT22;2752;49.992;8.422;2022-10-16T22:17:02;15.10;99.90
5459;DHT22;2752;49.992;8.422;2022-10-16T22:19:30;15.10;99.90
5459;DHT22;2752;49.992;8.422;2022-10-16T22:21:57;15.10;99.90
5459;DHT22;2752;49.992;8.422;2022-10-16T22:24:25;15.10;99.90
5459;DHT22;2752;49.992;8.422;2022-10-16T22:26:52;15.00;99.90
5459;DHT22;2752;49.992;8.422;2022-10-16T22:29:19;15.00;99.90
5459;DHT22;2752;49.992;8.422;2022-10-16T22:31:48;15.00;99.90
5459;DHT22;2752;49.992;8.422;2022-10-16T22:34:15;15.00;99.90
5459;DHT22;2752;49.992;8.422;2022-10-16T22:36:43;15.00;99.90
5459;DHT22;2752;49.992;8.422;2022-10-16T22:39:10;14.90;99.90
5459;DHT22;2752;49.992;8.422;2022-10-16T22:41:37;14.90;99.90
5459;DHT22;2752;49.992;8.422;2022-10-16T22:44:03;14.90;99.90
5459;DHT22;2752;49.992;8.422;2022-10-16T22:46:30;15.00;99.90
5459;DHT22;2752;49.992;8.422;2022-10-16T22:48:57;15.00;99.90
5459;DHT22;2752;49.992;8.422;2022-10-16T22:51:24;14.90;99.40
5459;DHT22;2752;49.992;8.422;2022-10-16T22:53:53;14.80;99.30
5459;DHT22;2752;49.992;8.422;2022-10-16T22:56:20;14.80;99.80
5459;DHT22;2752;49.992;8.422;2022-10-16T22:58:48;14.70;99.40
5459;DHT22;2752;49.992;8.422;2022-10-16T23:01:17;14.80;99.90
5459;DHT22;2752;49.992;8.422;2022-10-16T23:03:44;14.90;99.90
5459;DHT22;2752;49.992;8.422;2022-10-16T23:06:11;14.80;98.80
5459;DHT22;2752;49.992;8.422;2022-10-16T23:08:38;15.00;98.30
5459;DHT22;2752;49.992;8.422;2022-10-16T23:11:08;14.80;95.80
5459;DHT22;2752;49.992;8.422;2022-10-16T23:13:35;14.80;96.00
5459;DHT22;2752;49.992;8.422;2022-10-16T23:16:03;14.70;96.60
5459;DHT22;2752;49.992;8.422;2022-10-16T23:18:30;14.70;97.80
5459;DHT22;2752;49.992;8.422;2022-10-16T23:20:58;14.60;98.10
5459;DHT22;2752;49.992;8.422;2022-10-16T23:23:25;14.70;99.70
5459;DHT22;2752;49.992;8.422;2022-10-16T23:25:52;14.70;99.50
5459;DHT22;2752;49.992;8.422;2022-10-16T23:28:20;14.60;99.40
5459;DHT22;2752;49.992;8.422;2022-10-16T23:30:46;14.60;99.90
5459;DHT22;2752;49.992;8.422;2022-10-16T23:33:13;14.60;99.90
5459;DHT22;2752;49.992;8.422;2022-10-16T23:35:40;14.60;99.90
5459;DHT22;2752;49.992;8.422;2022-10-16T23:38:07;14.60;99.90
5459;DHT22;2752;49.992;8.422;2022-10-16T23:40:33;14.50;99.90
5459;DHT22;2752;49.992;8.422;2022-10-16T23:43:00;14.40;99.90
5459;DHT22;2752;49.992;8.422;2022-10-16T23:45:28;14.40;99.90
5459;DHT22;2752;49.992;8.422;2022-10-16T23:47:55;14.40;99.90
5459;DHT22;2752;49.992;8.422;2022-10-16T23:50:21;14.30;99.90
5459;DHT22;2752;49.992;8.422;2022-10-16T23:52:48;14.30;99.90
5459;DHT22;2752;49.992;8.422;2022-10-16T23:55:15;14.40;99.90
5459;DHT22;2752;49.992;8.422;2022-10-16T23:57:41;14.30;99.90
